Archiv-/Tagesdaten

--Timestamp---	Temp	Chill	HIndex	Humid	Dewpt	Wind	HiWind	WindDir	Rain	Barom	        Solar	ET	UV
--------------	----	-----	------	-----	-----	----	------	-------	----	-----	        -----	--	--
20090309 00:05	4.1	2.1	4.1	88	2.3	8	19	247	0.00	1006.268	0	0.000	0
20090309 00:10	4.1	2.1	4.1	88	2.3	8	16	247	0.00	1006.201	0	0.000	0
20090309 00:15	4.1	2.1	4.1	88	2.3	8	19	247	0.00	1006.201	0	0.000	0
20090309 00:20	4.2	2.2	4.2	87	2.2	8	23	247	0.00	1006.031	0	0.000	0
20090309 00:25	4.2	2.2	4.2	87	2.2	8	18	247	0.00	1005.997	0	0.000	0
20090309 00:30	4.2	2.2	4.2	87	2.3	8	23	247	0.00	1005.997	0	0.000	0
20090309 00:35	4.2	1.8	4.2	87	2.3	10	27	247	0.00	1005.963	0	0.000	0
20090309 00:40	4.3	1.9	4.3	87	2.3	10	23	247	0.00	1005.930	0	0.000	0
20090309 00:45	4.3	1.5	4.3	87	2.3	11	24	247	0.00	1005.794	0	0.000	0
20090309 00:50	4.3	1.5	4.3	87	2.3	11	21	247	0.00	1005.726	0	0.000	0
20090309 00:55	4.3	2.3	4.3	87	2.3	8	18	247	0.20	1005.625	0	0.000	0
20090309 01:00	4.3	1.5	4.3	87	2.3	11	29	247	0.00	1005.523	0	0.020	0
20090309 01:05	4.3	2.8	4.3	87	2.3	6	19	247	0.00	1005.456	0	0.000	0
20090309 01:10	4.3	1.9	4.3	87	2.3	10	21	225	0.00	1005.456	0	0.000	0
20090309 01:15	4.3	1.9	4.3	88	2.5	10	26	247	0.00	1005.354	0	0.000	0
20090309 01:20	4.2	1.8	4.2	88	2.4	10	18	247	0.00	1005.456	0	0.000	0
20090309 01:25	4.2	2.2	4.2	88	2.4	8	16	247	0.00	1005.354	0	0.000	0
20090309 01:30	4.2	2.2	4.2	88	2.4	8	19	247	0.00	1005.354	0	0.000	0
20090309 01:35	4.2	2.2	4.2	88	2.4	8	21	270	0.20	1005.320	0	0.000	0
20090309 01:40	4.2	1.8	4.2	88	2.4	10	19	247	0.00	1005.320	0	0.000	0
20090309 01:45	4.2	2.2	4.2	88	2.4	8	21	247	0.00	1005.320	0	0.000	0
20090309 01:50	4.2	1.8	4.2	88	2.4	10	21	247	0.00	1005.286	0	0.000	0
20090309 01:55	4.2	1.8	4.2	88	2.4	10	23	270	0.20	1005.218	0	0.000	0
20090309 02:00	4.1	1.7	4.1	89	2.5	10	19	247	0.20	1005.185	0	0.020	0
20090309 02:05	4.1	1.3	4.1	89	2.5	11	26	247	0.00	1005.252	0	0.000	0
20090309 02:10	4.1	1.6	4.1	89	2.4	10	21	270	0.00	1005.218	0	0.000	0
20090309 02:15	4.1	1.0	4.1	89	2.5	13	27	247	0.20	1005.218	0	0.000	0
20090309 02:20	4.1	0.8	4.1	88	2.3	14	27	270	0.00	1005.320	0	0.000	0
20090309 02:25	4.1	1.0	4.1	89	2.4	13	26	247	0.00	1005.354	0	0.000	0
20090309 02:30	4.1	1.0	4.1	88	2.2	13	29	225	0.00	1005.422	0	0.000	0
20090309 02:35	3.9	0.8	3.9	89	2.3	13	24	247	0.00	1005.489	0	0.000	0
20090309 02:40	3.8	0.7	3.8	89	2.2	13	24	247	0.00	1005.422	0	0.000	0
20090309 02:45	3.8	0.6	3.8	89	2.1	13	24	247	0.20	1005.523	0	0.000	0
20090309 02:50	3.8	0.1	3.8	89	2.1	16	32	247	0.00	1005.625	0	0.000	0
20090309 02:55	3.7	-0.2	3.7	89	2.1	18	43	270	0.00	1005.726	0	0.000	0
20090309 03:00	3.6	0.1	3.6	89	2.0	14	29	247	0.00	1005.557	0	0.020	0
20090309 03:05	3.5	0.3	3.5	88	1.7	13	23	247	0.00	1005.828	0	0.000	0
20090309 03:10	3.4	0.2	3.4	88	1.6	13	27	247	0.00	1005.760	0	0.000	0
20090309 03:15	3.4	-0.1	3.4	87	1.5	14	24	270	0.00	1005.896	0	0.000	0
20090309 03:20	3.3	0.4	3.3	87	1.4	11	21	247	0.00	1005.896	0	0.000	0
20090309 03:25	3.3	0.7	3.3	87	1.3	10	21	247	0.00	1005.726	0	0.000	0
20090309 03:30	3.3	-0.3	3.3	85	1.0	14	29	270	0.00	1005.828	0	0.000	0
20090309 03:35	3.3	0.0	3.3	85	1.0	13	29	247	0.00	1005.760	0	0.000	0
20090309 03:40	3.2	1.0	3.2	85	0.9	8	19	247	0.00	1005.828	0	0.000	0
20090309 03:45	3.1	0.9	3.1	85	0.8	8	21	270	0.00	1005.963	0	0.000	0
20090309 03:50	2.9	0.3	2.9	85	0.7	10	18	247	0.00	1006.031	0	0.000	0
20090309 03:55	2.8	0.2	2.8	85	0.6	10	19	247	0.00	1006.234	0	0.000	0
20090309 04:00	2.7	0.0	2.7	85	0.5	10	21	247	0.00	1006.268	0	0.020	0
20090309 04:05	2.7	0.4	2.7	85	0.4	8	19	247	0.00	1006.167	0	0.000	0
20090309 04:10	2.6	0.8	2.6	85	0.3	6	11	270	0.00	1006.065	0	0.000	0
20090309 04:15	2.5	0.2	2.5	85	0.2	8	16	247	0.00	1005.997	0	0.000	0
20090309 04:20	2.4	0.6	2.4	85	0.2	6	14	270	0.00	1006.065	0	0.000	0
20090309 04:25	2.4	0.1	2.4	85	0.1	8	14	247	0.00	1006.234	0	0.000	0
20090309 04:30	2.3	0.0	2.3	86	0.2	8	18	247	0.00	1006.336	0	0.000	0
20090309 04:35	2.2	-0.1	2.2	86	0.1	8	19	247	0.00	1006.404	0	0.000	0
20090309 04:40	2.2	0.3	2.2	86	0.1	6	10	247	0.00	1006.471	0	0.000	0
20090309 04:45	2.1	0.2	2.1	86	-0.0	6	14	247	0.00	1006.471	0	0.000	0
20090309 04:50	1.9	1.9	1.9	87	0.0	5	10	247	0.00	1006.505	0	0.000	0
20090309 04:55	1.9	1.9	1.9	87	-0.0	5	11	247	0.00	1006.471	0	0.000	0
20090309 05:00	1.8	1.8	1.8	87	-0.1	5	11	247	0.00	1006.505	0	0.000	0
20090309 05:05	1.8	-0.1	1.8	87	-0.1	6	16	225	0.00	1006.471	0	0.000	0
20090309 05:10	1.9	0.0	1.9	87	-0.0	6	18	247	0.00	1006.607	0	0.000	0
20090309 05:15	1.9	-0.5	1.9	87	-0.0	8	16	247	0.00	1006.471	0	0.000	0
20090309 05:20	2.0	-0.4	2.0	87	0.1	8	18	247	0.00	1006.573	0	0.000	0
20090309 05:25	2.1	-0.3	2.1	87	0.1	8	16	247	0.00	1006.573	0	0.000	0
20090309 05:30	2.1	-0.3	2.1	87	0.1	8	18	270	0.00	1006.573	0	0.000	0
20090309 05:35	2.2	-0.6	2.2	87	0.2	10	21	247	0.00	1006.641	0	0.000	0
20090309 05:40	2.4	0.1	2.4	86	0.3	8	19	270	0.00	1006.742	0	0.000	0
20090309 05:45	2.4	-0.3	2.4	86	0.3	10	19	247	0.00	1006.844	0	0.000	0
20090309 05:50	2.5	-0.2	2.5	86	0.4	10	21	247	0.00	1006.945	0	0.000	0
20090309 05:55	2.5	-0.6	2.5	86	0.4	11	24	247	0.00	1007.115	0	0.000	0
20090309 06:00	2.3	-1.1	2.3	87	0.4	13	23	247	0.00	1007.318	0	0.020	0
20090309 06:05	2.0	-1.2	2.0	88	0.2	11	24	247	0.20	1007.487	0	0.000	0
20090309 06:10	1.7	-1.2	1.7	88	-0.1	10	24	270	0.20	1007.657	0	0.000	0
20090309 06:15	1.3	-1.6	1.3	89	-0.3	10	23	247	0.40	1007.894	0	0.000	0
20090309 06:20	0.8	-2.2	0.8	90	-0.6	10	21	247	0.20	1008.097	0	0.000	0
20090309 06:25	0.5	-3.0	0.5	90	-0.9	11	21	247	0.20	1008.402	0	0.000	0
20090309 06:30	0.3	-3.3	0.3	91	-1.0	11	21	270	0.00	1008.435	0	0.000	0
20090309 06:35	0.1	-2.6	0.1	91	-1.2	8	21	270	0.20	1008.605	0	0.000	0
20090309 06:40	0.2	-3.8	0.2	92	-1.0	13	24	270	0.20	1008.774	0	0.000	0
20090309 06:45	0.2	-4.0	0.2	92	-0.9	14	27	247	0.40	1009.147	0	0.000	0
20090309 06:50	0.3	-3.6	0.3	92	-0.9	13	23	247	0.20	1009.181	0	0.000	0
20090309 06:55	0.3	-3.6	0.3	92	-0.9	13	29	270	0.20	1009.451	0	0.000	0
20090309 07:00	0.3	-3.6	0.3	92	-0.8	13	27	270	0.00	1009.756	0	0.000	0
20090309 07:05	0.4	-3.5	0.4	92	-0.8	13	26	270	0.00	1009.993	0	0.000	0
20090309 07:10	0.4	-3.5	0.4	92	-0.8	13	29	247	0.20	1010.163	0	0.000	0
20090309 07:15	0.4	-3.4	0.4	92	-0.7	13	31	270	0.00	1010.264	3	0.000	0
20090309 07:20	0.4	-3.4	0.4	92	-0.7	13	26	247	0.00	1010.400	9	0.000	0
20090309 07:25	0.5	-3.4	0.5	92	-0.6	13	24	270	0.00	1010.603	9	0.000	0
20090309 07:30	0.6	-2.9	0.6	92	-0.6	11	21	247	0.00	1010.637	13	0.000	0
20090309 07:35	0.6	-3.3	0.6	92	-0.6	13	27	270	0.00	1010.603	17	0.000	0
20090309 07:40	0.7	-2.8	0.7	92	-0.5	11	23	247	0.00	1010.704	21	0.000	0
20090309 07:45	0.7	-2.7	0.7	91	-0.6	11	23	270	0.00	1010.772	20	0.000	0
20090309 07:50	0.7	-2.3	0.7	91	-0.6	10	26	247	0.00	1010.908	15	0.000	0
20090309 07:55	0.7	-2.0	0.7	91	-0.6	8	18	270	0.20	1010.975	16	0.000	0
20090309 08:00	0.6	-2.1	0.6	91	-0.7	8	14	247	0.00	1010.975	36	0.000	0
20090309 08:05	0.6	-1.5	0.6	92	-0.6	6	14	247	0.00	1010.908	55	0.000	0
20090309 08:10	0.6	-2.5	0.6	92	-0.5	10	23	270	0.00	1010.840	64	0.000	0
20090309 08:15	0.7	-2.4	0.7	92	-0.5	10	19	247	0.00	1010.840	71	0.000	0
20090309 08:20	0.7	-2.7	0.7	91	-0.6	11	26	247	0.00	1010.704	71	0.000	0
20090309 08:25	0.8	-3.0	0.8	91	-0.5	13	26	270	0.00	1010.637	51	0.000	0
20090309 08:30	0.8	-3.0	0.8	90	-0.6	13	26	247	0.00	1010.535	43	0.000	0
20090309 08:35	0.9	-2.9	0.9	89	-0.7	13	23	247	0.00	1010.501	41	0.000	0
20090309 08:40	1.0	-2.4	1.0	88	-0.8	11	26	270	0.00	1010.400	37	0.000	0
20090309 08:45	1.1	-2.3	1.1	88	-0.7	11	23	270	0.00	1010.400	37	0.000	0
20090309 08:50	1.2	-2.2	1.2	88	-0.6	11	26	247	0.00	1010.400	32	0.000	0
20090309 08:55	1.2	-2.8	1.2	87	-0.7	14	27	247	0.00	1010.366	35	0.000	0
20090309 09:00	1.3	-2.4	1.3	87	-0.6	13	26	247	0.00	1010.433	38	0.020	0
20090309 09:05	1.6	-3.2	1.6	85	-0.7	19	35	247	0.00	1010.332	45	0.000	0
20090309 09:10	1.9	-2.5	1.9	84	-0.5	18	35	270	0.00	1010.332	87	0.000	1
20090309 09:15	2.1	-3.5	2.1	84	-0.4	27	53	247	0.00	1010.704	158	0.000	0
20090309 09:20	0.8	-4.3	0.8	88	-0.9	21	43	247	0.00	1010.975	92	0.000	0
20090309 09:25	0.4	-4.8	0.4	90	-1.0	21	42	270	0.00	1010.941	125	0.000	0
20090309 09:30	0.4	-4.0	0.4	91	-0.9	16	26	270	0.00	1011.077	189	0.000	1
20090309 09:35	0.4	-4.0	0.4	91	-0.9	16	34	270	0.20	1010.941	214	0.000	1
20090309 09:40	0.6	-3.2	0.6	92	-0.5	13	24	270	0.00	1010.975	163	0.000	0
20090309 09:45	0.6	-3.3	0.6	91	-0.7	13	29	270	0.00	1011.077	86	0.000	0
20090309 09:50	0.6	-2.9	0.6	91	-0.7	11	24	247	0.00	1010.874	106	0.000	0
20090309 09:55	0.6	-2.5	0.6	91	-0.7	10	18	247	0.00	1010.941	67	0.000	0
20090309 10:00	0.6	-2.5	0.6	91	-0.7	10	19	270	0.00	1011.111	58	0.040	0
20090309 10:05	0.7	-2.4	0.7	91	-0.6	10	19	270	0.00	1011.280	93	0.000	0
20090309 10:10	0.8	-2.3	0.8	91	-0.5	10	18	292	0.00	1011.280	92	0.000	0
20090309 10:15	0.7	-3.4	0.7	91	-0.6	14	29	292	0.00	1011.416	58	0.000	0
20090309 10:20	0.6	-3.5	0.6	91	-0.7	14	26	270	0.20	1011.483	66	0.000	0
20090309 10:25	0.4	-3.8	0.4	91	-0.9	14	26	270	0.00	1011.653	53	0.000	0
20090309 10:30	0.4	-2.7	0.4	91	-0.9	10	26	247	0.00	1011.551	108	0.000	1
20090309 10:35	0.8	-3.3	0.8	91	-0.5	14	31	247	0.00	1011.449	68	0.000	1
20090309 10:40	1.3	-3.4	1.3	90	-0.1	19	39	270	0.00	1011.449	62	0.000	1
20090309 10:45	1.9	-2.2	1.9	89	0.3	16	29	270	0.00	1011.314	192	0.000	2
20090309 10:50	2.2	-2.6	2.2	83	-0.4	21	35	270	0.20	1011.416	183	0.000	1
20090309 10:55	2.2	-2.5	2.2	82	-0.5	21	48	270	0.00	1011.653	134	0.000	1
20090309 11:00	2.3	-3.2	2.3	81	-0.6	27	48	270	0.00	1011.686	151	0.040	2
20090309 11:05	2.4	-2.9	2.4	79	-0.9	26	47	270	0.00	1011.720	356	0.000	2
20090309 11:10	2.6	-1.9	2.6	79	-0.7	19	34	270	0.00	1011.720	141	0.000	2
20090309 11:15	2.4	-1.9	2.4	80	-0.7	18	27	270	0.00	1011.924	134	0.000	2
20090309 11:20	2.5	-2.0	2.5	80	-0.6	19	32	270	0.00	1011.822	195	0.000	2
20090309 11:25	2.5	-2.2	2.5	77	-1.1	21	35	270	0.00	1011.856	127	0.000	1
20090309 11:30	2.4	-2.5	2.4	76	-1.4	23	39	270	0.00	1011.957	208	0.000	2
20090309 11:35	2.6	-2.4	2.6	75	-1.4	24	37	270	0.00	1011.856	203	0.000	1
20090309 11:40	2.7	-1.9	2.7	75	-1.3	21	39	270	0.00	1011.856	186	0.000	1
20090309 11:45	2.8	-2.3	2.8	70	-2.1	26	51	270	0.00	1011.924	223	0.000	1
20090309 11:50	2.9	-2.0	2.9	73	-1.4	24	45	270	0.00	1011.822	170	0.000	1
20090309 11:55	3.1	-1.7	3.1	73	-1.3	23	43	270	0.00	1011.957	235	0.000	2
20090309 12:00	3.2	-2.1	3.2	69	-2.0	27	45	270	0.00	1011.924	249	0.100	2
20090309 12:05	3.3	-1.6	3.3	70	-1.7	24	42	270	0.00	1011.890	189	0.000	1
20090309 12:10	3.3	-1.2	3.3	70	-1.7	21	37	270	0.00	1011.924	185	0.000	2
20090309 12:15	3.4	-1.5	3.4	69	-1.7	26	42	247	0.00	1012.025	247	0.000	2
20090309 12:20	3.4	-1.4	3.4	67	-2.1	24	48	270	0.00	1011.957	246	0.000	2
20090309 12:25	3.6	-0.6	3.6	70	-1.4	19	34	270	0.00	1012.025	255	0.000	2
20090309 12:30	3.7	0.3	3.7	71	-1.0	14	29	270	0.00	1011.991	274	0.000	2
20090309 12:35	3.9	-0.6	3.9	69	-1.3	23	40	270	0.00	1012.025	316	0.000	2
20090309 12:40	3.9	-0.6	3.9	68	-1.4	23	37	270	0.00	1012.025	293	0.000	2
20090309 12:45	3.8	-0.9	3.8	67	-1.7	24	39	270	0.00	1012.025	255	0.000	2
20090309 12:50	3.8	-0.7	3.8	67	-1.7	23	40	270	0.00	1012.161	237	0.000	2
20090309 12:55	3.9	-0.4	3.9	65	-2.1	21	43	270	0.00	1012.296	237	0.000	2
20090309 13:00	4.1	0.0	4.1	65	-1.9	19	40	270	0.00	1012.228	292	0.120	2
20090309 13:05	4.3	0.1	4.3	64	-1.9	21	37	270	0.00	1012.194	323	0.000	2
20090309 13:10	4.4	-0.4	4.4	61	-2.4	27	53	270	0.00	1012.330	284	0.000	2
20090309 13:15	4.3	-0.4	4.3	60	-2.7	26	50	270	0.00	1012.364	288	0.000	2
20090309 13:20	4.3	-0.2	4.3	61	-2.5	24	39	270	0.00	1012.364	241	0.000	2
20090309 13:25	4.4	-0.2	4.4	61	-2.5	24	50	270	0.00	1012.465	270	0.000	2
20090309 13:30	4.1	-0.5	4.1	60	-3.0	24	40	270	0.00	1012.533	128	0.000	1
20090309 13:35	4.0	-0.3	4.0	63	-2.4	21	39	270	0.00	1012.567	206	0.000	1
20090309 13:40	3.8	-0.9	3.8	64	-2.3	24	40	270	0.00	1012.635	208	0.000	2
20090309 13:45	3.8	-0.5	3.8	64	-2.3	21	35	270	0.00	1012.601	216	0.000	2
20090309 13:50	3.9	-0.0	3.9	64	-2.3	18	29	270	0.00	1012.533	179	0.000	1
20090309 13:55	3.8	-0.6	3.8	64	-2.4	21	32	270	0.00	1012.635	88	0.000	0
20090309 14:00	3.6	-0.2	3.6	65	-2.4	16	31	270	0.00	1012.736	67	0.120	0
20090309 14:05	3.4	-0.6	3.4	66	-2.4	18	32	270	0.00	1012.838	107	0.000	1
20090309 14:10	3.3	-0.8	3.3	67	-2.3	18	29	270	0.00	1012.939	103	0.000	1
20090309 14:15	3.2	-0.6	3.2	68	-2.1	16	34	270	0.00	1012.939	162	0.000	1
20090309 14:20	3.2	-1.3	3.2	68	-2.1	21	35	270	0.00	1013.007	91	0.000	0
20090309 14:25	3.0	-1.3	3.0	71	-1.7	19	32	270	0.00	1013.075	40	0.000	0
20090309 14:30	2.6	-1.7	2.6	74	-1.6	18	32	270	0.00	1013.075	66	0.000	0
20090309 14:35	2.5	-0.6	2.5	75	-1.5	11	24	270	0.00	1013.244	73	0.000	0
20090309 14:40	2.6	-0.8	2.6	74	-1.6	13	24	270	0.00	1013.143	79	0.000	0
20090309 14:45	2.7	-0.3	2.7	74	-1.4	11	23	270	0.00	1013.143	122	0.000	1
20090309 14:50	2.9	0.7	2.9	74	-1.2	8	16	292	0.00	1013.075	123	0.000	1
20090309 14:55	3.1	-0.3	3.1	72	-1.5	13	24	270	0.00	1013.109	171	0.000	1
20090309 15:00	3.2	1.0	3.2	73	-1.1	8	18	292	0.00	1013.109	199	0.060	1
20090309 15:05	3.4	0.5	3.4	71	-1.3	11	26	270	0.00	1013.210	216	0.000	1
20090309 15:10	3.7	0.8	3.7	70	-1.3	11	21	270	0.00	1013.041	223	0.000	1
20090309 15:15	3.8	0.7	3.8	69	-1.3	13	21	270	0.00	1013.109	208	0.000	1
20090309 15:20	3.9	1.1	3.9	70	-1.0	11	27	270	0.00	1013.143	140	0.000	0
20090309 15:25	3.9	0.3	3.9	69	-1.2	16	27	270	0.00	1013.041	124	0.000	0
20090309 15:30	3.9	0.5	3.9	70	-1.1	14	24	270	0.00	1013.143	104	0.000	0
20090309 15:35	3.8	0.9	3.8	74	-0.4	11	23	270	0.00	1013.244	105	0.000	0
20090309 15:40	3.6	1.0	3.6	75	-0.5	10	29	247	0.00	1013.312	43	0.000	0
20090309 15:45	3.1	-0.5	3.1	78	-0.4	14	29	247	0.00	1013.549	26	0.000	0
20090309 15:50	2.7	-1.3	2.7	82	-0.1	16	27	270	0.20	1013.549	211	0.000	1
20090309 15:55	2.9	-0.1	2.9	83	0.3	11	21	270	0.00	1013.515	113	0.000	1
20090309 16:00	3.2	-0.1	3.2	79	-0.1	13	23	270	0.00	1013.583	95	0.060	1
20090309 16:05	3.4	0.2	3.4	78	-0.0	13	23	270	0.00	1013.684	75	0.000	1
20090309 16:10	3.7	0.6	3.7	76	-0.1	13	27	270	0.00	1013.481	111	0.000	0
20090309 16:15	3.9	1.1	3.9	74	-0.3	11	26	270	0.00	1013.583	71	0.000	0
20090309 16:20	3.9	1.1	3.9	72	-0.6	11	21	292	0.00	1013.617	94	0.000	0
20090309 16:25	4.0	0.9	4.0	73	-0.4	13	23	270	0.00	1013.617	143	0.000	0
20090309 16:30	4.1	0.4	4.1	72	-0.5	16	24	270	0.00	1013.617	127	0.000	0
20090309 16:35	4.0	0.9	4.0	72	-0.6	13	26	270	0.00	1013.718	77	0.000	0
20090309 16:40	3.9	0.5	3.9	72	-0.7	14	27	270	0.00	1013.820	84	0.000	0
20090309 16:45	3.8	1.3	3.8	73	-0.6	10	19	247	0.00	1013.922	85	0.000	0
20090309 16:50	3.7	0.8	3.7	74	-0.5	11	21	270	0.00	1014.023	88	0.000	0
20090309 16:55	3.6	0.7	3.6	73	-0.8	11	24	270	0.00	1014.159	79	0.000	0
20090309 17:00	3.5	0.0	3.5	74	-0.7	14	27	270	0.00	1014.226	78	0.060	0
20090309 17:05	3.4	0.5	3.4	75	-0.6	11	19	270	0.00	1014.159	36	0.000	0
20090309 17:10	3.3	0.1	3.3	75	-0.7	13	24	270	0.00	1014.192	44	0.000	0
20090309 17:15	3.3	0.1	3.3	74	-0.9	13	23	270	0.00	1014.260	67	0.000	0
20090309 17:20	3.3	0.1	3.3	74	-0.9	13	21	270	0.00	1014.328	66	0.000	0
20090309 17:25	3.3	0.0	3.3	74	-0.9	13	23	270	0.00	1014.396	75	0.000	0
20090309 17:30	3.3	-0.3	3.3	74	-0.9	14	24	270	0.00	1014.396	53	0.000	0
20090309 17:35	3.2	-0.1	3.2	74	-1.0	13	23	270	0.00	1014.429	41	0.000	0
20090309 17:40	3.2	-0.1	3.2	74	-1.0	13	19	270	0.00	1014.531	36	0.000	0
20090309 17:45	3.1	0.5	3.1	74	-1.1	10	18	270	0.00	1014.531	32	0.000	0
20090309 17:50	3.1	0.9	3.1	74	-1.1	8	16	270	0.00	1014.666	29	0.000	0
20090309 17:55	2.9	1.2	2.9	75	-1.0	6	16	270	0.00	1014.870	21	0.000	0
20090309 18:00	2.9	1.2	2.9	76	-0.9	6	11	247	0.00	1014.937	13	0.040	0
20090309 18:05	2.8	2.8	2.8	76	-1.0	5	11	270	0.00	1015.208	9	0.000	0
20090309 18:10	2.7	0.4	2.7	75	-1.3	8	14	247	0.00	1015.208	6	0.000	0
20090309 18:15	2.6	0.8	2.6	74	-1.6	6	18	270	0.00	1015.107	0	0.000	0
20090309 18:20	2.6	0.8	2.6	74	-1.6	6	14	247	0.00	1015.276	0	0.000	0
20090309 18:25	2.6	0.8	2.6	74	-1.6	6	11	247	0.00	1015.344	0	0.000	0
20090309 18:30	2.6	0.8	2.6	74	-1.6	6	10	247	0.00	1015.378	0	0.000	0
20090309 18:35	2.5	2.5	2.5	75	-1.5	5	8	247	0.00	1015.411	0	0.000	0
20090309 18:40	2.4	2.4	2.4	75	-1.5	3	16	247	0.00	1015.649	0	0.000	0
20090309 18:45	2.4	2.4	2.4	78	-1.0	5	10	247	0.00	1015.716	0	0.000	0
20090309 18:50	2.3	0.5	2.3	79	-0.9	6	14	247	0.00	1015.818	0	0.000	0
20090309 18:55	2.3	0.5	2.3	80	-0.8	6	14	247	0.00	1015.852	0	0.000	0
20090309 19:00	2.2	-0.1	2.2	81	-0.7	8	18	247	0.00	1015.852	0	0.020	0
20090309 19:05	2.1	-0.3	2.1	81	-0.8	8	19	247	0.00	1015.953	0	0.000	0
20090309 19:10	2.0	-0.4	2.0	81	-0.9	8	19	225	0.00	1016.055	0	0.000	0
20090309 19:15	1.9	0.1	1.9	82	-0.8	6	16	247	0.00	1016.055	0	0.000	0
20090309 19:20	1.9	-0.5	1.9	82	-0.9	8	16	247	0.00	1016.156	0	0.000	0
20090309 19:25	1.8	-0.1	1.8	82	-0.9	6	16	247	0.00	1016.156	0	0.000	0
20090309 19:30	1.8	-0.1	1.8	83	-0.7	6	11	225	0.00	1016.190	0	0.000	0
20090309 19:35	1.8	-0.6	1.8	83	-0.8	8	13	247	0.00	1016.224	0	0.000	0
20090309 19:40	1.8	-0.1	1.8	83	-0.8	6	18	247	0.00	1016.224	0	0.000	0
20090309 19:45	1.8	-0.1	1.8	83	-0.8	6	14	247	0.00	1016.224	0	0.000	0
20090309 19:50	1.8	-0.1	1.8	83	-0.8	6	11	247	0.00	1016.190	0	0.000	0
20090309 19:55	1.7	1.7	1.7	83	-0.9	5	14	247	0.00	1016.190	0	0.000	0
20090309 20:00	1.7	1.7	1.7	83	-0.9	5	11	247	0.00	1016.224	0	0.020	0
20090309 20:05	1.8	-0.1	1.8	82	-0.9	6	18	225	0.00	1016.292	0	0.000	0
20090309 20:10	1.9	0.0	1.9	82	-0.9	6	13	247	0.00	1016.292	0	0.000	0
20090309 20:15	1.9	0.0	1.9	82	-0.9	6	18	225	0.00	1016.258	0	0.000	0
20090309 20:20	1.8	-0.1	1.8	82	-0.9	6	16	247	0.00	1016.292	0	0.000	0
20090309 20:25	1.8	-0.6	1.8	81	-1.1	8	21	247	0.00	1016.292	0	0.000	0
20090309 20:30	1.8	-1.0	1.8	81	-1.1	10	21	247	0.00	1016.326	0	0.000	0
20090309 20:35	1.9	-1.3	1.9	81	-1.0	11	21	247	0.00	1016.427	0	0.000	0
20090309 20:40	1.8	-1.7	1.8	82	-0.9	13	26	247	0.00	1016.461	0	0.000	0
20090309 20:45	1.7	-1.5	1.7	83	-0.9	11	21	270	0.00	1016.495	0	0.000	0
20090309 20:50	1.6	-1.3	1.6	83	-1.0	10	21	247	0.00	1016.495	0	0.000	0
20090309 20:55	1.6	-1.7	1.6	84	-0.9	11	21	247	0.00	1016.597	0	0.000	0
20090309 21:00	1.6	-1.4	1.6	84	-0.9	10	21	247	0.00	1016.732	0	0.020	0
20090309 21:05	1.4	-1.9	1.4	85	-0.8	11	23	247	0.00	1016.766	0	0.000	0
20090309 21:10	1.2	-2.5	1.2	86	-0.9	13	21	247	0.00	1016.868	0	0.000	0
20090309 21:15	0.9	-1.7	0.9	88	-0.9	8	23	247	0.00	1016.935	0	0.000	0
20090309 21:20	0.7	-2.0	0.7	89	-0.9	8	19	247	0.00	1016.901	0	0.000	0
20090309 21:25	0.6	-2.0	0.6	90	-0.8	8	16	247	0.00	1016.868	0	0.000	0
20090309 21:30	0.7	-2.7	0.7	89	-0.9	11	24	247	0.00	1016.868	0	0.000	0
20090309 21:35	0.8	-2.2	0.8	89	-0.8	10	23	247	0.00	1016.834	0	0.000	0
20090309 21:40	0.9	-1.7	0.9	88	-0.9	8	19	270	0.00	1016.800	0	0.000	0
20090309 21:45	1.0	-2.0	1.0	88	-0.8	10	23	247	0.00	1016.834	0	0.000	0
20090309 21:50	1.1	-1.5	1.1	87	-0.9	8	18	247	0.00	1016.732	0	0.000	0
20090309 21:55	1.1	-2.3	1.1	87	-0.8	11	21	247	0.00	1016.766	0	0.000	0
20090309 22:00	1.2	-1.8	1.2	87	-0.8	10	19	247	0.00	1016.732	0	0.000	0
20090309 22:05	1.2	-1.4	1.2	86	-0.9	8	18	247	0.00	1016.427	0	0.000	0
20090309 22:10	1.2	-1.7	1.2	86	-0.9	10	18	247	0.00	1016.427	0	0.000	0
20090309 22:15	1.3	-1.2	1.3	85	-1.0	8	23	247	0.00	1016.529	0	0.000	0
20090309 22:20	1.3	-1.6	1.3	85	-0.9	10	19	247	0.00	1016.495	0	0.000	0
20090309 22:25	1.3	-1.6	1.3	84	-1.1	10	19	247	0.00	1016.529	0	0.000	0
20090309 22:30	1.3	-1.6	1.3	84	-1.1	10	23	247	0.00	1016.631	0	0.000	0
20090309 22:35	1.4	-1.6	1.4	83	-1.2	10	21	247	0.00	1016.631	0	0.000	0
20090309 22:40	1.4	-1.9	1.4	83	-1.1	11	24	247	0.00	1016.698	0	0.000	0
20090309 22:45	1.6	-1.4	1.6	82	-1.2	10	24	247	0.00	1016.698	0	0.000	0
20090309 22:50	1.6	-1.4	1.6	82	-1.2	10	23	247	0.00	1016.800	0	0.000	0
20090309 22:55	1.7	-1.2	1.7	81	-1.2	10	23	247	0.00	1016.664	0	0.000	0
20090309 23:00	1.7	-1.2	1.7	81	-1.2	10	23	247	0.00	1016.800	0	0.020	0
20090309 23:05	1.7	-1.2	1.7	81	-1.2	10	18	247	0.00	1016.834	0	0.000	0
20090309 23:10	1.7	-1.9	1.7	80	-1.4	13	24	247	0.00	1016.834	0	0.000	0
20090309 23:15	1.7	-1.6	1.7	80	-1.4	11	26	247	0.00	1016.868	0	0.000	0
20090309 23:20	1.7	-1.2	1.7	81	-1.2	10	18	270	0.00	1016.969	0	0.000	0
20090309 23:25	1.7	-1.6	1.7	81	-1.2	11	21	247	0.00	1016.935	0	0.000	0
20090309 23:30	1.7	-1.5	1.7	80	-1.4	11	23	247	0.00	1016.901	0	0.000	0
20090309 23:35	1.8	-1.5	1.8	80	-1.3	11	21	247	0.00	1016.935	0	0.000	0
20090309 23:40	1.8	-1.4	1.8	80	-1.2	11	29	247	0.00	1017.003	0	0.000	0
20090309 23:45	1.9	-1.0	1.9	79	-1.4	10	21	247	0.00	1017.003	0	0.000	0
20090309 23:50	1.9	-1.0	1.9	80	-1.2	10	23	247	0.00	1016.901	0	0.000	0
20090309 23:55	1.9	-1.6	1.9	79	-1.3	13	26	247	0.00	1016.766	0	0.000	0
20090309 24:00	1.9	-1.6	1.9	79	-1.3	13	23	247	0.00	1016.698	0	0.020	0



Please note the license to use and transfer of this data:
http://creativecommons.org/licenses/by-nc-sa/3.0/deed.en

Bitte beachten sie die Lizenz zur Verwertung und Weitergabe der Daten:
http://creativecommons.org/licenses/by-nc-sa/3.0/deed.de

zurück zur Übersicht der Archivdaten (Monats und Tagesdaten)

Cookies helfen bei der Bereitstellung von Inhalten. Durch die Nutzung dieser Seiten erklärst du dich damit einverstanden, dass Cookies auf deinem Rechner gespeichert werden. Weitere Information